Time;durP1;ratioP1;P1;durP2;ratioP2;P2;SDS_P1;SDS_P2;PMS_P1;PMS_P2;Temp;Humidity;BMP_temperature;BMP_pressure;BME280_temperature;BME280_humidity;BME280_pressure;Samples;Min_cycle;Max_cycle;Signal;HPM_P1;HPM_P2
2023/04/12 00:02:36;;;;;;;10.40;2.60;;;;;;;8.80;54.39;99267.22;10350676;28;20073;-60
2023/04/12 00:07:38;;;;;;;10.18;2.85;;;;;;;8.69;54.58;99261.81;10346880;28;20077;-60
2023/04/12 00:12:40;;;;;;;9.77;3.10;;;;;;;8.60;54.53;99246.78;10342039;28;20050;-60
2023/04/12 00:17:43;;;;;;;12.15;2.97;;;;;;;8.60;54.99;99246.78;10347743;28;20046;-60
2023/04/12 00:22:45;;;;;;;7.80;2.75;;;;;;;8.72;55.39;99240.78;10346030;28;20067;-60
2023/04/12 00:27:47;;;;;;;11.10;3.08;;;;;;;8.72;56.11;99233.81;10347139;28;20607;-60
2023/04/12 00:32:49;;;;;;;8.73;3.03;;;;;;;8.65;56.50;99224.69;10340229;28;20066;-60
2023/04/12 00:37:51;;;;;;;11.18;3.15;;;;;;;8.60;56.74;99231.13;10351527;28;20439;-60
2023/04/12 00:42:53;;;;;;;9.68;3.15;;;;;;;8.51;56.85;99221.28;10347037;28;20055;-60
2023/04/12 00:47:56;;;;;;;9.05;2.67;;;;;;;8.56;56.79;99214.03;10341361;28;20045;-60
2023/04/12 00:52:58;;;;;;;9.98;2.85;;;;;;;8.58;57.24;99205.19;10349277;28;20502;-60
2023/04/12 00:58:00;;;;;;;9.85;2.75;;;;;;;8.56;57.38;99193.16;10343257;28;20174;-60
2023/04/12 01:03:04;;;;;;;15.63;2.78;;;;;;;8.59;57.73;99187.75;10340627;28;20757;-60
2023/04/12 01:08:27;;;;;;;14.15;2.58;;;;;;;8.61;58.86;99180.66;10344842;28;20128;-60
2023/04/12 01:13:38;;;;;;;10.60;2.60;;;;;;;8.66;58.72;99168.19;10337377;28;20046;-60
2023/04/12 01:18:44;;;;;;;7.50;2.38;;;;;;;8.72;58.45;99141.72;10351501;28;20216;-60
2023/04/12 01:23:55;;;;;;;12.18;3.00;;;;;;;8.67;58.86;99133.34;10347833;28;20042;-60
2023/04/12 01:29:00;;;;;;;8.48;2.40;;;;;;;8.67;58.48;99134.19;10354769;28;20049;-60
2023/04/12 01:34:03;;;;;;;8.50;2.42;;;;;;;8.70;59.03;99113.16;10348146;28;20048;-60
2023/04/12 01:39:07;;;;;;;9.35;2.50;;;;;;;8.75;59.07;99110.25;10350020;28;20046;-60
2023/04/12 01:44:12;;;;;;;7.47;2.40;;;;;;;8.76;59.51;99096.28;10359595;28;20033;-60
2023/04/12 01:49:16;;;;;;;12.38;2.85;;;;;;;8.63;59.43;99092.78;10347181;28;20042;-60
2023/04/12 01:54:23;;;;;;;9.65;2.38;;;;;;;8.53;59.89;99099.53;10346936;28;20049;-61
2023/04/12 01:59:31;;;;;;;10.93;2.50;;;;;;;8.50;60.19;99090.16;10347104;28;20089;-60
2023/04/12 02:04:34;;;;;;;14.48;2.70;;;;;;;8.51;59.72;99083.16;10351941;28;20056;-60
2023/04/12 02:09:39;;;;;;;9.88;2.90;;;;;;;8.50;60.13;99071.09;10358311;28;20161;-60
2023/04/12 02:14:41;;;;;;;8.75;2.40;;;;;;;8.46;60.25;99056.59;10352047;28;20402;-60
2023/04/12 02:19:44;;;;;;;11.00;2.50;;;;;;;8.26;60.65;99044.00;10351328;28;20047;-60
2023/04/12 02:24:46;;;;;;;9.07;2.58;;;;;;;8.15;61.17;99036.03;10355030;28;20051;-60
2023/04/12 02:29:48;;;;;;;7.43;2.42;;;;;;;8.21;61.17;99035.63;10366570;28;20050;-60
2023/04/12 02:34:50;;;;;;;9.43;2.33;;;;;;;8.22;61.40;99022.50;10348884;28;20037;-60
2023/04/12 02:39:56;;;;;;;10.38;2.75;;;;;;;8.15;61.64;99012.59;10352217;28;20237;-60
2023/04/12 02:44:59;;;;;;;9.85;2.42;;;;;;;8.10;61.86;98996.41;10350319;28;20794;-61
2023/04/12 02:50:02;;;;;;;8.88;2.40;;;;;;;8.13;62.02;98988.41;10354919;28;20133;-59
2023/04/12 02:55:07;;;;;;;7.88;2.30;;;;;;;8.18;62.11;98981.16;10349499;28;20041;-60
2023/04/12 03:00:12;;;;;;;7.70;2.30;;;;;;;8.29;61.92;98966.50;10352238;28;20038;-60
2023/04/12 03:05:23;;;;;;;9.70;2.45;;;;;;;8.35;61.86;98952.22;10356196;28;20042;-61
2023/04/12 03:10:25;;;;;;;9.40;2.53;;;;;;;8.42;61.69;98930.88;10354323;28;20512;-60
2023/04/12 03:15:35;;;;;;;6.97;2.38;;;;;;;8.30;62.17;98925.66;10344978;28;20045;-60
2023/04/12 03:20:42;;;;;;;12.85;2.95;;;;;;;8.21;62.46;98921.88;10342765;28;20057;-60
2023/04/12 03:25:48;;;;;;;10.35;2.63;;;;;;;8.21;62.52;98921.03;10350781;28;20034;-60
2023/04/12 03:31:04;;;;;;;8.82;2.75;;;;;;;8.22;62.66;98917.50;10343588;28;20058;-61
2023/04/12 03:36:20;;;;;;;8.77;2.35;;;;;;;8.19;62.69;98896.88;10350631;28;20382;-61
2023/04/12 03:41:27;;;;;;;7.70;2.70;;;;;;;8.11;62.80;98884.38;10359041;28;20124;-60
2023/04/12 03:46:29;;;;;;;8.27;2.67;;;;;;;7.95;63.20;98868.91;10343332;28;20041;-60
2023/04/12 03:51:41;;;;;;;9.13;3.05;;;;;;;7.72;63.77;98846.13;10345513;28;20248;-60
2023/04/12 03:56:43;;;;;;;9.65;3.13;;;;;;;7.76;64.11;98841.56;10339567;28;20052;-60
2023/04/12 04:01:54;;;;;;;6.88;2.83;;;;;;;7.65;64.28;98831.03;10325689;28;20054;-60
2023/04/12 04:07:00;;;;;;;9.43;3.03;;;;;;;7.62;64.26;98813.84;10349707;28;20041;-60
2023/04/12 04:12:04;;;;;;;6.75;2.50;;;;;;;7.70;64.30;98810.72;10337737;28;20038;-61
2023/04/12 04:17:08;;;;;;;4.80;2.10;;;;;;;7.73;64.36;98806.13;10354570;28;20033;-60
2023/04/12 04:22:11;;;;;;;4.65;2.47;;;;;;;7.65;64.52;98789.38;10347122;28;20054;-60
2023/04/12 04:27:14;;;;;;;6.13;2.22;;;;;;;7.64;64.65;98783.34;10347235;28;20165;-60
2023/04/12 04:32:16;;;;;;;6.18;2.58;;;;;;;7.61;64.89;98770.53;10340694;28;20076;-61
2023/04/12 04:37:20;;;;;;;5.78;2.13;;;;;;;7.56;65.06;98766.56;10340284;28;20041;-61
2023/04/12 04:42:23;;;;;;;6.25;2.20;;;;;;;7.55;64.94;98755.31;10348752;28;20049;-60
2023/04/12 04:47:33;;;;;;;5.10;2.07;;;;;;;7.64;64.90;98733.06;10364207;28;20724;-60
2023/04/12 04:52:36;;;;;;;4.30;1.77;;;;;;;7.62;65.19;98716.72;10367452;28;20108;-60
2023/04/12 04:57:43;;;;;;;3.95;1.73;;;;;;;7.62;64.95;98693.31;10354196;28;20050;-60
2023/04/12 05:02:45;;;;;;;2.97;1.50;;;;;;;7.51;65.27;98693.22;10349281;28;20047;-60
2023/04/12 05:07:56;;;;;;;4.72;1.85;;;;;;;7.61;65.34;98686.44;10348592;28;20052;-60
2023/04/12 05:12:59;;;;;;;6.50;1.83;;;;;;;7.66;65.06;98673.94;10351047;28;20049;-60
2023/04/12 05:18:02;;;;;;;4.15;2.00;;;;;;;7.70;65.19;98673.66;10367948;28;20069;-61
2023/04/12 05:23:04;;;;;;;4.90;2.00;;;;;;;7.87;65.18;98668.13;10355502;28;20219;-61
2023/04/12 05:28:12;;;;;;;5.25;2.20;;;;;;;7.89;65.14;98655.00;10362311;28;20133;-61
2023/04/12 05:33:15;;;;;;;5.85;2.70;;;;;;;7.94;65.05;98658.94;10364573;28;20107;-60
2023/04/12 05:38:20;;;;;;;4.88;2.70;;;;;;;7.93;65.03;98638.22;10351701;28;20585;-60
2023/04/12 05:43:26;;;;;;;4.53;3.28;;;;;;;7.98;65.38;98629.16;10343196;28;20042;-60
2023/04/12 05:48:28;;;;;;;6.95;3.22;;;;;;;8.01;65.12;98620.31;10346451;28;20096;-60
2023/04/12 05:53:32;;;;;;;4.97;3.10;;;;;;;8.04;65.38;98602.69;10326970;28;21366;-60
2023/04/12 05:58:37;;;;;;;7.55;2.80;;;;;;;8.10;65.18;98603.22;10362854;28;20524;-60
2023/04/12 06:03:40;;;;;;;5.47;3.20;;;;;;;8.17;65.55;98591.44;10348663;28;20041;-60
2023/04/12 06:08:43;;;;;;;4.00;2.55;;;;;;;8.18;65.32;98593.94;10369669;28;20455;-60
2023/04/12 06:13:45;;;;;;;4.82;2.70;;;;;;;8.11;65.74;98584.06;10356855;28;20056;-60
2023/04/12 06:18:47;;;;;;;3.45;2.55;;;;;;;8.16;65.64;98574.97;10362233;28;20046;-60
2023/04/12 06:23:49;;;;;;;3.75;2.15;;;;;;;8.13;65.93;98559.59;10391013;28;20394;-61
2023/04/12 06:28:51;;;;;;;3.92;2.50;;;;;;;8.22;65.83;98553.69;10342986;28;20593;-61
2023/04/12 06:33:53;;;;;;;4.10;2.30;;;;;;;8.25;66.12;98547.44;10353224;28;20593;-61
2023/04/12 06:38:56;;;;;;;3.45;2.42;;;;;;;8.35;66.02;98532.81;10343311;28;20037;-61
2023/04/12 06:43:59;;;;;;;3.15;1.80;;;;;;;8.22;66.23;98532.06;10346179;28;20057;-61
2023/04/12 06:49:01;;;;;;;4.38;2.05;;;;;;;8.33;65.92;98511.25;10383382;28;20038;-61
2023/04/12 06:54:03;;;;;;;4.93;2.13;;;;;;;8.25;66.56;98501.41;10349048;28;20088;-61
2023/04/12 06:59:05;;;;;;;3.38;2.00;;;;;;;8.48;66.15;98494.50;10344163;28;20658;-61
2023/04/12 07:04:07;;;;;;;3.40;1.95;;;;;;;8.56;65.79;98486.97;10343381;28;20386;-61
2023/04/12 07:09:09;;;;;;;6.00;2.45;;;;;;;8.74;65.72;98469.94;10358721;28;20054;-61
2023/04/12 07:14:10;;;;;;;4.38;2.03;;;;;;;8.88;65.50;98459.31;10346025;28;20300;-61
2023/04/12 07:19:12;;;;;;;3.70;1.80;;;;;;;8.89;65.33;98458.38;10346863;28;20663;-61
2023/04/12 07:24:14;;;;;;;2.95;1.90;;;;;;;8.98;65.49;98449.81;10363872;28;20054;-61
2023/04/12 07:29:16;;;;;;;3.13;1.75;;;;;;;9.03;65.00;98449.47;10337136;28;20428;-61
2023/04/12 07:34:18;;;;;;;2.53;1.70;;;;;;;9.01;65.08;98439.19;10394106;28;20221;-61
2023/04/12 07:39:20;;;;;;;2.85;1.60;;;;;;;9.01;65.00;98423.53;10347179;28;20065;-61
2023/04/12 07:44:22;;;;;;;2.30;1.50;;;;;;;9.13;65.01;98416.53;10343007;28;20704;-61
2023/04/12 07:49:24;;;;;;;3.58;1.70;;;;;;;9.21;64.70;98406.31;10342719;28;20438;-61
2023/04/12 07:54:26;;;;;;;3.08;1.80;;;;;;;9.39;65.15;98400.50;10341860;28;20061;-61
2023/04/12 07:59:29;;;;;;;4.28;1.50;;;;;;;9.26;64.92;98391.97;10368947;28;20048;-60
2023/04/12 08:04:31;;;;;;;14.00;3.83;;;;;;;9.38;65.42;98392.81;10366609;28;20056;-60
2023/04/12 08:09:33;;;;;;;2.83;1.40;;;;;;;9.61;64.80;98379.56;10374951;28;20061;-61
2023/04/12 08:14:35;;;;;;;2.75;1.50;;;;;;;9.84;64.59;98384.75;10344138;28;20064;-61
2023/04/12 08:19:40;;;;;;;3.33;1.30;;;;;;;9.68;64.75;98372.13;10347632;28;20042;-61
2023/04/12 08:24:42;;;;;;;3.78;1.50;;;;;;;9.75;64.99;98369.84;10340880;28;20050;-61
2023/04/12 08:29:45;;;;;;;2.08;1.30;;;;;;;9.68;64.91;98359.06;10349791;28;20046;-60
2023/04/12 08:34:48;;;;;;;2.05;1.23;;;;;;;9.72;64.34;98355.25;10364672;28;20045;-59
2023/04/12 08:39:50;;;;;;;1.48;0.93;;;;;;;9.93;63.52;98337.00;10362491;28;20068;-59
2023/04/12 08:44:52;;;;;;;2.60;1.20;;;;;;;10.10;63.33;98336.44;10354909;28;20065;-60
2023/04/12 08:49:55;;;;;;;2.22;1.30;;;;;;;10.24;63.24;98333.50;10339295;28;20058;-59
2023/04/12 08:54:57;;;;;;;2.35;1.30;;;;;;;10.23;63.04;98324.84;10337636;28;20046;-60
2023/04/12 09:00:02;;;;;;;3.65;1.50;;;;;;;10.21;63.32;98318.09;10339187;28;20131;-60
2023/04/12 09:05:05;;;;;;;2.20;1.30;;;;;;;10.11;63.25;98312.81;10331729;28;20387;-60
2023/04/12 09:10:07;;;;;;;3.25;1.50;;;;;;;10.29;64.08;98307.81;10350955;28;20529;-60
2023/04/12 09:15:12;;;;;;;3.08;1.67;;;;;;;10.68;63.78;98296.59;10359551;28;20045;-59
2023/04/12 09:20:17;;;;;;;2.33;1.10;;;;;;;10.69;63.20;98287.78;10349102;28;20127;-60
2023/04/12 09:25:35;;;;;;;2.67;1.33;;;;;;;10.67;63.99;98268.78;10354663;28;20140;-60
2023/04/12 09:30:41;;;;;;;2.13;1.20;;;;;;;10.75;62.92;98261.09;10346723;28;20057;-60
2023/04/12 09:35:42;;;;;;;2.95;1.60;;;;;;;10.92;62.87;98250.00;10335945;28;20303;-60
2023/04/12 09:40:45;;;;;;;1.98;1.25;;;;;;;11.00;63.62;98255.41;10333733;28;20132;-60
2023/04/12 09:45:47;;;;;;;1.45;1.00;;;;;;;10.94;63.43;98257.72;10334532;28;20118;-60
2023/04/12 09:50:57;;;;;;;1.50;1.23;;;;;;;11.31;62.67;98245.69;10339078;28;20050;-60
2023/04/12 09:56:02;;;;;;;1.75;1.10;;;;;;;11.68;62.24;98227.50;10344448;28;20057;-60
2023/04/12 10:01:08;;;;;;;1.88;1.00;;;;;;;11.79;62.14;98220.31;10347323;28;20193;-61
2023/04/12 10:06:11;;;;;;;1.40;1.00;;;;;;;11.63;61.77;98230.53;10341185;28;20042;-60
2023/04/12 10:11:13;;;;;;;1.33;1.23;;;;;;;11.77;62.60;98216.16;10349982;28;20132;-60
2023/04/12 10:16:15;;;;;;;3.28;1.80;;;;;;;11.92;61.43;98201.66;10346409;28;20054;-61
2023/04/12 10:21:17;;;;;;;6.60;4.25;;;;;;;11.97;61.72;98192.41;10346598;28;20048;-60
2023/04/12 10:26:20;;;;;;;1.65;1.20;;;;;;;12.03;61.58;98191.00;10351764;28;20572;-61
2023/04/12 10:31:29;;;;;;;1.13;0.98;;;;;;;12.16;61.90;98191.53;10342673;28;20176;-61
2023/04/12 10:36:51;;;;;;;3.78;1.10;;;;;;;12.20;62.59;98177.16;10345383;28;20053;-60
2023/04/12 10:42:14;;;;;;;1.30;0.95;;;;;;;12.41;60.26;98167.31;10349684;28;21540;-61
2023/04/12 10:47:48;;;;;;;2.88;1.00;;;;;;;12.50;61.28;98169.03;10338626;28;20168;-60
2023/04/12 10:53:24;;;;;;;1.75;1.00;;;;;;;12.69;60.96;98161.09;10346016;28;20143;-61
2023/04/12 10:59:01;;;;;;;1.17;1.05;;;;;;;12.71;61.02;98159.13;10347210;28;20048;-60
2023/04/12 11:04:16;;;;;;;1.48;1.10;;;;;;;12.89;61.74;98162.59;10341810;28;20256;-60
2023/04/12 11:09:32;;;;;;;1.20;1.10;;;;;;;13.23;60.72;98159.31;10328707;28;20505;-61
2023/04/12 11:14:36;;;;;;;1.10;0.93;;;;;;;13.76;60.83;98158.28;10338484;28;20054;-61
2023/04/12 11:19:42;;;;;;;2.42;1.00;;;;;;;14.19;59.27;98146.84;10343271;28;20124;-61
2023/04/12 11:24:49;;;;;;;2.08;1.00;;;;;;;14.11;60.00;98152.06;10302646;28;20510;-61
2023/04/12 11:29:56;;;;;;;1.65;1.10;;;;;;;14.43;60.00;98146.13;10345992;28;20192;-61
2023/04/12 11:34:58;;;;;;;1.80;1.20;;;;;;;14.66;59.28;98146.38;10340574;28;20052;-61
2023/04/12 11:40:04;;;;;;;1.65;1.10;;;;;;;14.68;59.86;98144.41;10326682;28;20426;-62
2023/04/12 11:45:09;;;;;;;2.40;1.20;;;;;;;14.89;59.38;98145.63;10337505;28;20141;-61
2023/04/12 11:50:29;;;;;;;1.98;1.05;;;;;;;14.83;58.99;98135.75;10334638;28;20125;-61
2023/04/12 11:55:32;;;;;;;2.63;1.30;;;;;;;15.10;58.79;98140.72;10310953;28;20180;-61
2023/04/12 12:00:34;;;;;;;2.85;1.05;;;;;;;15.47;57.36;98134.16;10342979;28;20315;-61
2023/04/12 12:05:37;;;;;;;1.50;1.05;;;;;;;15.52;56.92;98130.06;10343866;28;20616;-61
2023/04/12 12:10:40;;;;;;;1.50;0.90;;;;;;;15.95;57.00;98115.66;10327615;28;20046;-61
2023/04/12 12:16:00;;;;;;;1.02;0.88;;;;;;;15.78;55.70;98114.88;10363480;28;20034;-61
2023/04/12 12:21:02;;;;;;;1.40;1.00;;;;;;;15.53;57.72;98115.88;10354510;28;20112;-61
2023/04/12 12:26:05;;;;;;;0.93;0.80;;;;;;;15.69;57.64;98102.72;10350199;28;20518;-61
2023/04/12 12:31:21;;;;;;;0.80;0.60;;;;;;;15.63;56.67;98092.84;10358016;28;20354;-61
2023/04/12 12:36:37;;;;;;;0.50;0.50;;;;;;;15.63;57.47;98082.31;10366126;28;20057;-61
2023/04/12 12:41:40;;;;;;;2.15;0.80;;;;;;;15.77;57.78;98089.50;10380585;28;20057;-61
2023/04/12 12:46:41;;;;;;;0.63;0.60;;;;;;;16.30;56.50;98085.34;10373308;28;20056;-61
2023/04/12 12:51:46;;;;;;;0.77;0.70;;;;;;;16.60;55.62;98077.47;10372530;28;20062;-61
2023/04/12 12:56:48;;;;;;;0.57;0.57;;;;;;;17.04;54.00;98075.00;10368682;28;20049;-61
2023/04/12 13:01:50;;;;;;;0.68;0.45;;;;;;;16.95;52.64;98074.28;10349836;28;20056;-61
2023/04/12 13:06:54;;;;;;;0.60;0.52;;;;;;;16.31;53.40;98068.53;10380114;28;20069;-61
2023/04/12 13:11:56;;;;;;;0.75;0.60;;;;;;;15.96;53.54;98069.81;10355090;28;20049;-61
2023/04/12 13:16:58;;;;;;;0.40;0.40;;;;;;;15.69;54.03;98051.81;10379870;28;20538;-61
2023/04/12 13:22:00;;;;;;;0.60;0.60;;;;;;;15.83;53.19;98064.28;10354291;28;20070;-61
2023/04/12 13:27:02;;;;;;;1.35;0.63;;;;;;;15.92;52.90;98048.25;10353191;28;20795;-61
2023/04/12 13:32:04;;;;;;;0.77;0.50;;;;;;;15.77;51.99;98065.78;10367635;28;20037;-61
2023/04/12 13:37:06;;;;;;;1.05;0.40;;;;;;;15.45;52.64;98073.72;10358365;28;20042;-61
2023/04/12 13:42:08;;;;;;;1.02;0.70;;;;;;;15.26;52.41;98059.09;10359139;28;20136;-61
2023/04/12 13:47:10;;;;;;;0.60;0.60;;;;;;;15.27;52.99;98039.66;10364589;28;20251;-60
2023/04/12 13:52:12;;;;;;;0.47;0.38;;;;;;;15.88;50.89;98006.59;10361963;28;20093;-60
2023/04/12 13:57:13;;;;;;;2.22;0.50;;;;;;;16.31;50.84;98026.31;10360203;28;20636;-61
2023/04/12 14:02:15;;;;;;;1.63;0.63;;;;;;;16.21;49.50;98037.91;10367273;28;20057;-61
2023/04/12 14:07:17;;;;;;;1.27;0.60;;;;;;;15.84;49.60;98013.19;10367901;28;20840;-61
2023/04/12 14:12:22;;;;;;;4.10;0.68;;;;;;;15.27;51.14;98020.41;10359942;28;20057;-61
2023/04/12 14:17:23;;;;;;;12.05;2.10;;;;;;;14.30;55.66;98074.75;10344644;28;20049;-61
2023/04/12 14:22:29;;;;;;;7.05;1.30;;;;;;;13.21;57.90;98093.03;10345733;28;20352;-60
2023/04/12 14:27:35;;;;;;;3.63;0.75;;;;;;;12.51;59.21;98084.19;10366450;28;20153;-60
2023/04/12 14:32:40;;;;;;;1.13;0.60;;;;;;;11.91;58.28;98095.22;10366471;28;20053;-60
2023/04/12 14:37:44;;;;;;;1.45;0.65;;;;;;;11.93;57.36;98104.59;10381810;28;20054;-60
2023/04/12 14:42:48;;;;;;;0.60;0.60;;;;;;;12.09;57.60;98096.09;10383624;28;20072;-60
2023/04/12 14:47:49;;;;;;;4.05;0.93;;;;;;;12.19;59.08;98123.13;10380309;28;20542;-60
2023/04/12 14:52:53;;;;;;;1.42;1.10;;;;;;;12.27;59.33;98127.63;10378109;28;20469;-60
2023/04/12 14:57:55;;;;;;;2.33;1.02;;;;;;;12.39;59.97;98111.59;10363340;28;20701;-60
2023/04/12 15:02:59;;;;;;;2.58;0.80;;;;;;;12.38;60.40;98123.03;10365861;28;20063;-59
2023/04/12 15:08:01;;;;;;;1.77;1.10;;;;;;;12.63;60.46;98124.13;10368039;28;20588;-61
2023/04/12 15:13:03;;;;;;;2.53;1.00;;;;;;;12.91;59.90;98139.66;10384610;28;20049;-62
2023/04/12 15:18:05;;;;;;;5.95;1.00;;;;;;;12.73;60.29;98130.97;10380038;28;20049;-61
2023/04/12 15:23:07;;;;;;;0.82;0.80;;;;;;;13.03;59.26;98107.97;10377060;28;20156;-61
2023/04/12 15:28:09;;;;;;;1.48;0.80;;;;;;;13.76;59.49;98112.78;10352959;28;20042;-61
2023/04/12 15:33:11;;;;;;;1.80;0.80;;;;;;;14.20;57.95;98118.75;10359055;28;20053;-61
2023/04/12 15:38:12;;;;;;;2.78;0.80;;;;;;;14.34;57.55;98126.03;10364541;28;20053;-61
2023/04/12 15:43:19;;;;;;;1.00;0.57;;;;;;;14.80;57.80;98119.47;10376279;28;20046;-62
2023/04/12 15:48:23;;;;;;;0.68;0.60;;;;;;;14.86;56.06;98111.72;10370082;28;20532;-62
2023/04/12 15:53:28;;;;;;;2.75;1.00;;;;;;;15.15;55.62;98127.06;10359575;28;20062;-61
2023/04/12 15:58:30;;;;;;;1.42;0.60;;;;;;;14.48;55.94;98131.53;10369480;28;20140;-61
2023/04/12 16:03:34;;;;;;;1.23;0.60;;;;;;;14.20;55.89;98135.38;10363406;28;20081;-61
2023/04/12 16:08:36;;;;;;;2.80;1.25;;;;;;;14.13;56.27;98147.47;10365915;28;20049;-62
2023/04/12 16:13:40;;;;;;;4.45;2.88;;;;;;;13.70;56.44;98144.91;10368244;28;20059;-61
2023/04/12 16:18:44;;;;;;;7.75;2.58;;;;;;;13.19;56.86;98137.78;10358895;28;20144;-62
2023/04/12 16:23:47;;;;;;;5.50;3.40;;;;;;;13.01;57.48;98149.25;10359064;28;20049;-61
2023/04/12 16:28:51;;;;;;;4.30;2.45;;;;;;;13.08;57.91;98138.03;10351657;28;20049;-61
2023/04/12 16:33:54;;;;;;;4.50;2.83;;;;;;;13.16;57.67;98142.50;10344403;28;20441;-61
2023/04/12 16:38:58;;;;;;;8.05;4.72;;;;;;;13.47;56.66;98147.25;10358239;28;20415;-61
2023/04/12 16:44:02;;;;;;;2.55;1.00;;;;;;;14.49;54.82;98142.91;10371785;28;20445;-61
2023/04/12 16:49:04;;;;;;;1.88;0.80;;;;;;;14.80;53.67;98137.91;10358393;28;20469;-61
2023/04/12 16:54:06;;;;;;;3.05;1.00;;;;;;;13.89;53.92;98143.88;10340863;28;20553;-61
2023/04/12 16:59:08;;;;;;;2.78;1.10;;;;;;;13.18;53.80;98140.56;10352472;28;20038;-62
2023/04/12 17:04:11;;;;;;;3.42;1.10;;;;;;;12.94;54.18;98146.41;10340612;28;20046;-61
2023/04/12 17:09:13;;;;;;;2.25;1.00;;;;;;;12.76;54.04;98167.38;10339162;28;20045;-61
2023/04/12 17:14:15;;;;;;;2.63;1.10;;;;;;;12.67;55.48;98198.91;10346688;28;20041;-61
2023/04/12 17:19:19;;;;;;;5.43;1.20;;;;;;;11.98;54.49;98254.34;10336540;28;20048;-61
2023/04/12 17:24:21;;;;;;;4.20;1.13;;;;;;;11.09;56.53;98236.28;10340568;28;20704;-61
2023/04/12 17:29:23;;;;;;;2.53;1.00;;;;;;;10.54;57.04;98243.84;10334710;28;20050;-61
2023/04/12 17:34:26;;;;;;;3.53;1.20;;;;;;;10.41;57.26;98265.81;10345626;28;20057;-61
2023/04/12 17:39:27;;;;;;;4.25;1.00;;;;;;;10.17;58.26;98293.19;10343413;28;20091;-61
2023/04/12 17:44:31;;;;;;;4.47;1.23;;;;;;;9.98;59.38;98306.94;10364180;28;20050;-61
2023/04/12 17:49:33;;;;;;;3.38;1.27;;;;;;;9.82;59.51;98329.22;10369790;28;20049;-61
2023/04/12 17:54:37;;;;;;;6.03;1.45;;;;;;;9.72;60.38;98349.19;10337052;28;20674;-61
2023/04/12 17:59:39;;;;;;;5.22;1.30;;;;;;;9.62;60.14;98364.75;10344880;28;20128;-61
2023/04/12 18:04:42;;;;;;;2.55;1.00;;;;;;;9.34;59.10;98379.16;10335935;28;20056;-61
2023/04/12 18:09:44;;;;;;;2.58;1.40;;;;;;;9.56;59.67;98393.94;10352936;28;20046;-61
2023/04/12 18:14:47;;;;;;;2.13;1.10;;;;;;;9.56;59.94;98399.97;10339725;28;20472;-61
2023/04/12 18:19:49;;;;;;;2.83;1.20;;;;;;;9.60;60.45;98422.28;10356168;28;21033;-60
2023/04/12 18:24:52;;;;;;;3.97;1.10;;;;;;;9.59;59.82;98438.88;10377715;28;20124;-61
2023/04/12 18:29:55;;;;;;;6.43;1.20;;;;;;;9.37;59.52;98418.06;10345568;28;20343;-61
2023/04/12 18:34:57;;;;;;;3.85;2.20;;;;;;;9.24;58.61;98404.31;10357641;28;20130;-61
2023/04/12 18:39:59;;;;;;;5.22;2.40;;;;;;;9.12;59.11;98423.50;10343109;28;20080;-61
2023/04/12 18:45:01;;;;;;;6.22;2.65;;;;;;;9.16;58.87;98408.44;10352152;28;20512;-61
2023/04/12 18:50:04;;;;;;;7.45;4.38;;;;;;;9.01;59.23;98418.31;10353473;28;20512;-61
2023/04/12 18:55:06;;;;;;;4.35;2.30;;;;;;;8.76;59.30;98442.00;10335813;28;20061;-61
2023/04/12 19:00:12;;;;;;;6.57;1.88;;;;;;;8.91;59.03;98437.38;10344458;28;20037;-61
2023/04/12 19:05:14;;;;;;;3.45;1.83;;;;;;;8.89;59.66;98421.88;10339813;28;20430;-61
2023/04/12 19:10:17;;;;;;;4.88;2.78;;;;;;;9.01;59.57;98444.41;10341148;28;20044;-61
2023/04/12 19:15:19;;;;;;;3.70;1.30;;;;;;;9.04;59.60;98433.72;10345782;28;20045;-61
2023/04/12 19:20:21;;;;;;;3.58;1.10;;;;;;;8.98;59.94;98442.00;10338995;28;20045;-61
2023/04/12 19:25:28;;;;;;;1.77;0.90;;;;;;;8.82;59.82;98436.31;10344543;28;20056;-61
2023/04/12 19:30:31;;;;;;;2.88;1.23;;;;;;;8.58;60.39;98440.78;10339765;28;20037;-61
2023/04/12 19:35:34;;;;;;;2.55;0.93;;;;;;;8.33;60.62;98446.13;10340895;28;20046;-61
2023/04/12 19:40:36;;;;;;;4.80;1.38;;;;;;;8.08;60.91;98457.50;10339336;28;20139;-61
2023/04/12 19:45:38;;;;;;;4.38;1.90;;;;;;;7.80;61.27;98458.66;10341998;28;20045;-61
2023/04/12 19:50:40;;;;;;;4.35;1.80;;;;;;;7.75;62.15;98446.94;10339773;28;20042;-61
2023/04/12 19:55:43;;;;;;;4.47;2.05;;;;;;;7.75;62.00;98450.34;10353800;28;20097;-62
2023/04/12 20:00:50;;;;;;;3.17;1.65;;;;;;;7.71;62.40;98443.69;10345214;28;20053;-61
2023/04/12 20:05:53;;;;;;;4.38;2.22;;;;;;;7.59;62.16;98441.97;10335536;28;20576;-62
2023/04/12 20:10:55;;;;;;;5.15;2.10;;;;;;;7.41;62.64;98445.88;10340123;28;20156;-62
2023/04/12 20:15:59;;;;;;;5.10;1.52;;;;;;;7.26;63.27;98453.94;10336898;28;20195;-61
2023/04/12 20:21:03;;;;;;;4.93;1.88;;;;;;;7.21;63.34;98464.63;10338205;28;20065;-61
2023/04/12 20:26:04;;;;;;;4.10;1.35;;;;;;;7.15;63.65;98471.09;10338011;28;20095;-61
2023/04/12 20:31:06;;;;;;;5.70;1.60;;;;;;;7.06;64.02;98476.13;10339799;28;20077;-61
2023/04/12 20:36:09;;;;;;;3.65;1.40;;;;;;;6.98;64.08;98474.00;10332778;28;20057;-61
2023/04/12 20:41:11;;;;;;;5.25;2.17;;;;;;;6.92;64.23;98476.19;10343267;28;20816;-61
2023/04/12 20:46:15;;;;;;;3.80;1.58;;;;;;;6.87;64.02;98494.72;10341566;28;20077;-61
2023/04/12 20:51:19;;;;;;;3.70;1.65;;;;;;;6.63;63.64;98482.53;10338100;28;20297;-61
2023/04/12 20:56:21;;;;;;;3.95;1.98;;;;;;;6.21;63.70;98496.53;10326310;28;20046;-60
2023/04/12 21:01:24;;;;;;;4.38;1.55;;;;;;;6.24;63.84;98497.19;10334464;28;20042;-61
2023/04/12 21:06:26;;;;;;;4.10;1.75;;;;;;;6.46;63.82;98498.38;10332694;28;20144;-61
2023/04/12 21:11:28;;;;;;;7.15;1.85;;;;;;;6.59;64.01;98507.06;10368740;28;20046;-61
2023/04/12 21:16:30;;;;;;;4.82;1.98;;;;;;;6.48;63.67;98509.50;10330630;28;20231;-61
2023/04/12 21:21:34;;;;;;;4.40;2.30;;;;;;;6.55;64.12;98521.97;10339273;28;20088;-61
2023/04/12 21:26:36;;;;;;;11.00;3.47;;;;;;;6.57;64.52;98529.69;10334728;28;20045;-61
2023/04/12 21:31:40;;;;;;;6.70;2.67;;;;;;;6.58;64.44;98529.59;10335635;28;20042;-61
2023/04/12 21:36:44;;;;;;;6.18;3.15;;;;;;;6.56;63.58;98525.41;10339235;28;20050;-61
2023/04/12 21:41:45;;;;;;;4.18;2.20;;;;;;;6.50;63.49;98526.66;10340411;28;20038;-61
2023/04/12 21:46:47;;;;;;;5.03;1.90;;;;;;;6.61;63.48;98525.97;10348281;28;20405;-61
2023/04/12 21:51:51;;;;;;;7.68;3.55;;;;;;;6.52;63.61;98527.41;10346642;28;20054;-61
2023/04/12 21:56:52;;;;;;;4.82;2.20;;;;;;;6.06;63.09;98528.66;10342270;28;20140;-60
2023/04/12 22:01:54;;;;;;;4.00;2.10;;;;;;;5.86;64.25;98529.09;10343838;28;20068;-61
2023/04/12 22:06:57;;;;;;;4.97;2.40;;;;;;;5.79;64.10;98526.06;10340671;28;20045;-60
2023/04/12 22:12:01;;;;;;;4.70;2.15;;;;;;;5.74;64.64;98527.28;10345510;28;20125;-60
2023/04/12 22:17:04;;;;;;;4.85;2.60;;;;;;;5.67;64.59;98529.41;10345732;28;20042;-60
2023/04/12 22:22:09;;;;;;;2.40;1.40;;;;;;;5.57;64.82;98536.09;10341699;28;20062;-60
2023/04/12 22:27:11;;;;;;;4.90;1.90;;;;;;;5.44;65.25;98536.00;10343205;28;20042;-60
2023/04/12 22:32:13;;;;;;;3.65;1.63;;;;;;;5.36;65.14;98521.84;10338346;28;20772;-60
2023/04/12 22:37:15;;;;;;;5.65;1.60;;;;;;;5.35;65.02;98520.19;10342374;28;20057;-60
2023/04/12 22:42:19;;;;;;;2.75;1.33;;;;;;;5.50;64.97;98516.63;10339315;28;20374;-60
2023/04/12 22:47:21;;;;;;;3.22;1.45;;;;;;;5.38;64.66;98523.41;10343072;28;20066;-60
2023/04/12 22:52:23;;;;;;;4.35;1.50;;;;;;;5.24;64.61;98505.28;10340791;28;20414;-60
2023/04/12 22:57:24;;;;;;;4.75;2.38;;;;;;;5.07;64.66;98512.38;10343258;28;20042;-61
2023/04/12 23:02:26;;;;;;;5.85;2.70;;;;;;;4.81;65.72;98513.09;10342109;28;20212;-60
2023/04/12 23:07:28;;;;;;;4.50;2.67;;;;;;;4.64;65.97;98514.94;10350709;28;20323;-60
2023/04/12 23:12:31;;;;;;;4.97;2.22;;;;;;;4.66;66.10;98520.00;10338078;28;20891;-61
2023/04/12 23:17:32;;;;;;;6.78;2.70;;;;;;;4.38;66.91;98531.13;10342325;28;20549;-61
2023/04/12 23:22:45;;;;;;;6.20;2.33;;;;;;;4.25;67.18;98540.50;10341121;28;20042;-61
2023/04/12 23:27:57;;;;;;;5.63;2.40;;;;;;;4.23;67.10;98531.97;10339170;28;20510;-60
2023/04/12 23:32:59;;;;;;;5.50;2.50;;;;;;;4.09;67.40;98524.16;10341580;28;20281;-60
2023/04/12 23:38:01;;;;;;;7.28;2.15;;;;;;;4.20;67.59;98524.41;10334409;28;20053;-61
2023/04/12 23:43:03;;;;;;;4.35;2.15;;;;;;;4.31;67.24;98521.22;10344001;28;20038;-60